Fayetteville, NC

7:02 AM EDT on September 30, 2014 (GMT -0400)
Fayetteville Regional-Grannis | Change Station
CLOSE
Current Station
Airport
Location: Fayetteville,
Elevation: 190 ft
Nearby Weather Stations

Elev 190 ft 34.99 °N, 78.88 °W | Updated 9 minutes ago

Mist
Mist
59 °F
Feels Like 59 °F
N
0
Wind Variable Wind from North

Today
High -- | Low -- °F
--% Chance of Precip.
Yesterday
High -- | Low -- °F
Precip. -- in
7:09 AM 7:00 PM
Waxing Crescent, 35% visible
Pressure 29.90 in
Visibility 0.8 miles
Clouds
Dew Point 58 °F
Humidity 96%
Rainfall 0.00 in
Snow Depth Not available.
UV Not available.
Pollen 3.20 out of 12
Ozone Good
PM2.5 Good
Flu Activity Not available.
METAR KFAY 301053Z 00000KT 3/4SM BR VV002 15/14 A2991 RMK AO2 SLP124 T01500144 RVRNO

More Conditions Fewer Conditions

Pressure 29.90 in
Visibility 0.8 miles
Clouds
Dew Point 58 °F
Humidity 96%
Rainfall 0.00 in
Snow Depth Not available.
UV Not available.
Pollen 3.20 out of 12
Ozone Good
PM2.5 Good
Flu Activity Not available.
METAR KFAY 301053Z 00000KT 3/4SM BR VV002 15/14 A2991 RMK AO2 SLP124 T01500144 RVRNO

More Conditions Fewer Conditions

10-Day Weather Forecast

Almanac

Astronomy

Sep. 30, 2014 Rise Set
Actual Time 7:09 AM EDT 7:00 PM EDT
Civil Twilight 6:44 AM EDT 7:25 PM EDT
Nautical Twilight 6:14 AM EDT 7:55 PM EDT
Astronomical Twilight 5:45 AM EDT 8:24 PM EDT
Moon 1:05 PM EDT 11:39 PM EDT
Length of Visible Light 12h 41m
Length of Day
11h 51m
Tomorrow will be 2m 11s shorter.
Waxing Crescent, 35% of the Moon is Illuminated
Today
Waxing Crescent
Oct 1
First Quarter
Oct 8
Full
Oct 15
Last Quarter
Oct 23
New

Today's Extremes

State Highs State Lows

Community

WunderPhotos

Upload Photos

1,757,612 photos uploaded!

WunderBlogs® & News

Nearby

Air Quality

  Air Quality AQ Index Pollutant
Yesterday Good
PM2.5
Yesterday Good
OZONE
Current Good
PM2.5
Current Good
OZONE
Tuesday Good
PM2.5
Tuesday Good
OZONE
Wednesday Good
PM2.5
Wednesday Good
OZONE
Thursday Good
PM2.5
Thursday Good
OZONE

Snow Depth

Station Depth Elevation
No new snow has been reported.

Earthquake Activity

City Distance Mag. Time & Date
No recent earthquake activity has been reported nearby.
Minimum magnitude displayed is 2.5.

Coastal Water Temperatures

Place Temperature
No Stations Reporting

Nearby Weather Stations